Time;durP1;ratioP1;P1;durP2;ratioP2;P2;SDS_P1;SDS_P2;PMS_P1;PMS_P2;Temp;Humidity;BMP_temperature;BMP_pressure;BME280_temperature;BME280_humidity;BME280_pressure;Samples;Min_cycle;Max_cycle;Signal;HPM_P1;HPM_P2
2021/08/30 00:00:02;;;;;;;2.00;1.27;;;;;;;;;;5092538;28;20115;-58
2021/08/30 00:02:27;;;;;;;1.90;1.80;;;;;;;;;;5092503;28;20467;-57
2021/08/30 00:04:53;;;;;;;1.88;1.67;;;;;;;;;;5092303;28;20032;-58
2021/08/30 00:07:18;;;;;;;1.70;1.60;;;;;;;;;;5091895;28;20099;-58
2021/08/30 00:09:43;;;;;;;1.73;1.60;;;;;;;;;;5090725;28;20440;-58
2021/08/30 00:12:09;;;;;;;1.48;1.38;;;;;;;;;;5095373;28;20176;-58
2021/08/30 00:14:34;;;;;;;1.65;1.25;;;;;;;;;;5094089;28;20388;-58
2021/08/30 00:16:59;;;;;;;1.92;1.52;;;;;;;;;;5092153;28;20027;-57
2021/08/30 00:19:25;;;;;;;2.25;1.73;;;;;;;;;;5091672;28;20027;-58
2021/08/30 00:21:50;;;;;;;1.38;1.02;;;;;;;;;;5097939;28;20035;-58
2021/08/30 00:24:15;;;;;;;1.50;1.40;;;;;;;;;;5105019;28;20485;-56
2021/08/30 00:26:40;;;;;;;3.55;1.55;;;;;;;;;;5112395;28;20027;-57
2021/08/30 00:29:06;;;;;;;1.50;1.40;;;;;;;;;;5110210;28;20410;-57
2021/08/30 00:31:31;;;;;;;2.10;1.40;;;;;;;;;;5091893;28;20032;-57
2021/08/30 00:33:56;;;;;;;2.80;1.27;;;;;;;;;;5103172;28;20020;-58
2021/08/30 00:36:24;;;;;;;1.30;1.20;;;;;;;;;;5094590;28;20024;-58
2021/08/30 00:38:50;;;;;;;3.10;1.58;;;;;;;;;;5091961;28;20527;-58
2021/08/30 00:41:15;;;;;;;1.75;1.08;;;;;;;;;;5092730;28;20021;-58
2021/08/30 00:43:40;;;;;;;1.65;1.48;;;;;;;;;;5085772;28;20032;-59
2021/08/30 00:46:06;;;;;;;1.60;1.50;;;;;;;;;;5091211;28;20020;-59
2021/08/30 00:48:31;;;;;;;1.90;1.35;;;;;;;;;;5091544;28;20392;-59
2021/08/30 00:50:57;;;;;;;1.52;1.42;;;;;;;;;;5099108;28;20028;-59
2021/08/30 00:53:22;;;;;;;1.63;1.52;;;;;;;;;;5091904;28;20080;-59
2021/08/30 00:55:47;;;;;;;1.60;1.50;;;;;;;;;;5091279;28;20020;-59
2021/08/30 00:58:13;;;;;;;1.35;1.25;;;;;;;;;;5073651;28;20051;-59
2021/08/30 01:00:38;;;;;;;2.10;1.15;;;;;;;;;;5073775;28;20016;-58
2021/08/30 01:03:03;;;;;;;1.20;1.10;;;;;;;;;;5103229;28;20024;-55
2021/08/30 01:05:29;;;;;;;1.50;1.40;;;;;;;;;;5102508;28;20009;-58
2021/08/30 01:07:54;;;;;;;1.52;1.42;;;;;;;;;;5091034;28;20612;-58
2021/08/30 01:10:42;;;;;;;1.60;1.50;;;;;;;;;;5091516;28;20016;-58
2021/08/30 01:13:09;;;;;;;1.80;1.52;;;;;;;;;;5076529;28;20270;-56
2021/08/30 01:15:44;;;;;;;2.00;1.50;;;;;;;;;;5091529;28;20139;-58
2021/08/30 01:18:20;;;;;;;2.85;1.23;;;;;;;;;;5091460;28;20597;-58
2021/08/30 01:21:04;;;;;;;1.40;1.23;;;;;;;;;;5092264;28;20032;-57
2021/08/30 01:23:29;;;;;;;1.30;1.20;;;;;;;;;;5095237;28;20020;-58
2021/08/30 01:25:57;;;;;;;1.88;1.15;;;;;;;;;;5097298;28;20027;-57
2021/08/30 01:28:24;;;;;;;1.70;1.25;;;;;;;;;;5094647;28;20412;-58
2021/08/30 01:30:50;;;;;;;1.02;0.98;;;;;;;;;;5094890;28;20416;-57
2021/08/30 01:33:15;;;;;;;1.67;1.33;;;;;;;;;;5094852;28;20494;-57
2021/08/30 01:35:41;;;;;;;2.13;1.40;;;;;;;;;;5095238;28;20240;-58
2021/08/30 01:38:07;;;;;;;1.55;1.05;;;;;;;;;;5098255;28;20359;-58
2021/08/30 01:40:33;;;;;;;1.55;1.40;;;;;;;;;;5095292;28;20089;-58
2021/08/30 01:42:59;;;;;;;1.70;1.60;;;;;;;;;;5094270;28;20454;-57
2021/08/30 01:45:26;;;;;;;1.90;1.40;;;;;;;;;;5094834;28;20303;-58
2021/08/30 01:47:52;;;;;;;1.77;1.67;;;;;;;;;;5094631;28;20027;-58
2021/08/30 01:50:20;;;;;;;1.38;1.27;;;;;;;;;;5076556;28;20103;-58
2021/08/30 01:52:46;;;;;;;1.60;1.50;;;;;;;;;;5094220;28;20085;-58
2021/08/30 01:55:20;;;;;;;2.58;1.35;;;;;;;;;;5094616;28;20036;-58
2021/08/30 02:03:08;;;;;;;1.63;1.50;;;;;;;;;;5108617;28;20034;-58
2021/08/30 02:05:33;;;;;;;1.98;1.70;;;;;;;;;;5115523;28;20016;-57
2021/08/30 02:07:58;;;;;;;2.97;1.98;;;;;;;;;;5104877;28;20102;-57
2021/08/30 02:10:23;;;;;;;1.95;1.85;;;;;;;;;;5093922;28;20016;-57
2021/08/30 02:12:48;;;;;;;1.85;1.75;;;;;;;;;;5094415;28;20018;-57
2021/08/30 02:15:14;;;;;;;2.65;2.13;;;;;;;;;;5094390;28;20093;-58
2021/08/30 02:17:42;;;;;;;3.83;2.10;;;;;;;;;;5094333;28;20024;-59
2021/08/30 02:20:09;;;;;;;3.38;1.67;;;;;;;;;;5094746;28;20015;-57
2021/08/30 02:22:40;;;;;;;1.80;1.70;;;;;;;;;;5077422;28;20063;-58
2021/08/30 02:25:09;;;;;;;2.90;2.15;;;;;;;;;;5094212;28;20039;-57
2021/08/30 02:27:45;;;;;;;3.72;1.75;;;;;;;;;;5093759;28;20028;-58
2021/08/30 02:30:14;;;;;;;1.65;1.48;;;;;;;;;;5095169;28;20020;-58
2021/08/30 02:32:40;;;;;;;1.33;1.23;;;;;;;;;;5092900;28;20077;-57
2021/08/30 02:35:06;;;;;;;1.63;1.50;;;;;;;;;;5098285;28;20039;-56
2021/08/30 02:37:32;;;;;;;2.60;1.92;;;;;;;;;;5093204;28;20032;-58
2021/08/30 02:39:59;;;;;;;2.00;1.90;;;;;;;;;;5093753;28;20546;-58
2021/08/30 02:42:24;;;;;;;2.47;2.28;;;;;;;;;;5103274;28;20024;-56
2021/08/30 02:44:50;;;;;;;1.88;1.77;;;;;;;;;;5093808;28;20016;-58
2021/08/30 02:47:16;;;;;;;2.92;2.20;;;;;;;;;;5093772;28;20069;-57
2021/08/30 02:49:42;;;;;;;2.10;2.00;;;;;;;;;;5093484;28;20043;-59
2021/08/30 02:52:09;;;;;;;2.20;2.00;;;;;;;;;;5093576;28;20047;-57
2021/08/30 02:54:35;;;;;;;1.95;1.60;;;;;;;;;;5093720;28;20027;-58
2021/08/30 02:57:01;;;;;;;2.00;1.80;;;;;;;;;;5093632;28;20035;-59
2021/08/30 02:59:27;;;;;;;1.88;1.77;;;;;;;;;;5093400;28;20047;-56
2021/08/30 03:01:52;;;;;;;2.17;1.70;;;;;;;;;;5093973;28;20055;-56
2021/08/30 03:04:17;;;;;;;1.65;1.50;;;;;;;;;;5093659;28;20386;-56
2021/08/30 03:06:43;;;;;;;2.20;2.10;;;;;;;;;;5089998;28;20039;-58
2021/08/30 03:09:08;;;;;;;2.05;1.95;;;;;;;;;;5090545;28;20031;-58
2021/08/30 03:11:34;;;;;;;2.40;2.20;;;;;;;;;;5093264;28;20486;-58
2021/08/30 03:14:01;;;;;;;2.33;2.13;;;;;;;;;;5092855;28;20110;-58
2021/08/30 03:16:27;;;;;;;2.15;2.05;;;;;;;;;;5089260;28;20416;-59
2021/08/30 03:18:53;;;;;;;2.58;2.05;;;;;;;;;;5093240;28;20013;-59
2021/08/30 03:21:18;;;;;;;2.25;2.10;;;;;;;;;;5091947;28;20020;-59
2021/08/30 03:23:44;;;;;;;2.97;2.78;;;;;;;;;;5093077;28;20095;-59
2021/08/30 03:26:09;;;;;;;2.92;2.40;;;;;;;;;;5092946;28;20020;-58
2021/08/30 03:28:35;;;;;;;2.55;2.30;;;;;;;;;;5081882;28;20522;-58
2021/08/30 03:31:01;;;;;;;2.70;2.50;;;;;;;;;;5073021;28;20108;-58
2021/08/30 03:33:27;;;;;;;2.97;2.20;;;;;;;;;;5072360;28;22394;-59
2021/08/30 03:35:53;;;;;;;3.80;2.25;;;;;;;;;;5072659;28;20108;-59
2021/08/30 03:38:21;;;;;;;2.53;2.33;;;;;;;;;;5075368;28;20013;-58
2021/08/30 03:40:46;;;;;;;5.32;2.15;;;;;;;;;;5071936;28;20023;-57
2021/08/30 03:43:11;;;;;;;2.40;2.25;;;;;;;;;;5071330;28;20029;-58
2021/08/30 03:45:37;;;;;;;2.72;2.53;;;;;;;;;;5072265;28;20016;-58
2021/08/30 03:48:03;;;;;;;3.95;3.53;;;;;;;;;;5072137;28;20016;-58
2021/08/30 03:50:29;;;;;;;3.03;2.72;;;;;;;;;;5072603;28;20024;-58
2021/08/30 03:52:55;;;;;;;3.25;2.67;;;;;;;;;;5052301;28;20017;-58
2021/08/30 03:55:20;;;;;;;4.97;2.67;;;;;;;;;;5072560;28;20072;-56
2021/08/30 03:57:47;;;;;;;2.85;2.17;;;;;;;;;;5072392;28;20020;-58
2021/08/30 04:00:13;;;;;;;4.47;2.88;;;;;;;;;;5071977;28;20019;-57
2021/08/30 04:02:40;;;;;;;2.80;2.60;;;;;;;;;;5084797;28;20028;-57
2021/08/30 04:05:06;;;;;;;4.22;2.92;;;;;;;;;;5071815;28;20418;-55
2021/08/30 04:07:32;;;;;;;2.85;2.58;;;;;;;;;;5071694;28;20031;-56
2021/08/30 04:09:58;;;;;;;4.20;2.47;;;;;;;;;;5075802;28;20020;-57
2021/08/30 04:12:23;;;;;;;2.20;2.10;;;;;;;;;;5070287;28;20375;-58
2021/08/30 04:14:49;;;;;;;2.80;2.60;;;;;;;;;;5071621;28;20479;-59
2021/08/30 04:17:14;;;;;;;4.35;2.50;;;;;;;;;;5072157;28;20413;-58
2021/08/30 04:19:39;;;;;;;3.00;2.67;;;;;;;;;;5071044;28;20019;-58
2021/08/30 04:22:05;;;;;;;2.90;2.70;;;;;;;;;;5071483;28;20028;-57
2021/08/30 04:24:30;;;;;;;3.38;3.08;;;;;;;;;;5071752;28;20024;-59
2021/08/30 04:26:55;;;;;;;2.80;2.60;;;;;;;;;;5071846;28;20158;-56
2021/08/30 04:29:21;;;;;;;3.65;3.05;;;;;;;;;;5100679;28;20044;-58
2021/08/30 04:31:46;;;;;;;3.88;3.35;;;;;;;;;;5112074;28;20023;-58
2021/08/30 04:34:11;;;;;;;3.28;2.97;;;;;;;;;;5111882;28;20039;-57
2021/08/30 04:36:37;;;;;;;4.65;3.67;;;;;;;;;;5112861;28;20106;-59
2021/08/30 04:39:02;;;;;;;2.95;2.75;;;;;;;;;;5111912;28;20019;-59
2021/08/30 04:41:27;;;;;;;3.22;3.03;;;;;;;;;;5112194;28;20027;-59
2021/08/30 04:43:52;;;;;;;3.28;3.08;;;;;;;;;;5112128;28;20015;-58
2021/08/30 04:46:18;;;;;;;4.63;3.00;;;;;;;;;;5111998;28;20020;-58
2021/08/30 04:48:43;;;;;;;5.15;3.80;;;;;;;;;;5104447;28;20389;-59
2021/08/30 04:51:09;;;;;;;3.85;3.55;;;;;;;;;;5111385;28;20015;-57
2021/08/30 04:53:34;;;;;;;4.45;3.78;;;;;;;;;;5112259;28;20074;-58
2021/08/30 04:55:59;;;;;;;4.50;3.55;;;;;;;;;;5112939;28;20028;-58
2021/08/30 04:58:24;;;;;;;5.22;4.32;;;;;;;;;;5115849;28;20028;-58
2021/08/30 05:00:50;;;;;;;4.15;3.83;;;;;;;;;;5117005;28;20015;-57
2021/08/30 05:03:15;;;;;;;4.97;4.18;;;;;;;;;;5116047;28;20089;-56
2021/08/30 05:05:40;;;;;;;3.72;3.50;;;;;;;;;;5113429;28;20020;-58
2021/08/30 05:08:05;;;;;;;4.05;3.65;;;;;;;;;;5114972;28;20028;-58
2021/08/30 05:10:31;;;;;;;3.95;3.65;;;;;;;;;;5116029;28;20039;-59
2021/08/30 05:12:56;;;;;;;5.80;3.78;;;;;;;;;;5115710;28;20347;-58
2021/08/30 05:15:21;;;;;;;3.97;3.67;;;;;;;;;;5113942;28;20145;-58
2021/08/30 05:17:46;;;;;;;4.10;2.70;;;;;;;;;;5106363;28;20028;-57
2021/08/30 05:20:12;;;;;;;3.35;2.85;;;;;;;;;;5115301;28;20008;-56
2021/08/30 05:22:37;;;;;;;3.22;3.03;;;;;;;;;;5084339;28;20074;-57
2021/08/30 05:25:03;;;;;;;3.72;2.75;;;;;;;;;;5110344;28;20034;-58
2021/08/30 05:27:28;;;;;;;3.05;2.85;;;;;;;;;;5115492;28;20463;-57
2021/08/30 05:29:54;;;;;;;3.53;3.05;;;;;;;;;;5115273;28;20418;-58
2021/08/30 05:32:19;;;;;;;2.50;2.30;;;;;;;;;;5115916;28;20042;-58
2021/08/30 05:34:45;;;;;;;3.50;3.20;;;;;;;;;;5115306;28;20470;-57
2021/08/30 05:37:10;;;;;;;2.80;2.60;;;;;;;;;;5114909;28;20024;-58
2021/08/30 05:39:35;;;;;;;4.72;2.70;;;;;;;;;;5113647;28;20018;-56
2021/08/30 05:42:00;;;;;;;3.00;2.70;;;;;;;;;;5114583;28;20034;-58
2021/08/30 05:44:26;;;;;;;2.78;2.58;;;;;;;;;;5114827;28;20466;-58
2021/08/30 05:46:52;;;;;;;3.83;3.05;;;;;;;;;;5114932;28;20478;-58
2021/08/30 05:49:17;;;;;;;2.90;2.63;;;;;;;;;;5115017;28;20020;-59
2021/08/30 05:51:42;;;;;;;2.47;2.30;;;;;;;;;;5114585;28;20099;-59
2021/08/30 05:54:07;;;;;;;3.70;2.45;;;;;;;;;;5114982;28;20141;-58
2021/08/30 05:56:33;;;;;;;5.03;4.60;;;;;;;;;;5111583;27;20019;-59
2021/08/30 05:58:58;;;;;;;4.10;3.80;;;;;;;;;;5103258;28;20466;-59
2021/08/30 06:01:23;;;;;;;2.88;2.67;;;;;;;;;;5115003;28;20064;-59
2021/08/30 06:03:48;;;;;;;2.90;2.70;;;;;;;;;;5115975;27;20024;-58
2021/08/30 06:06:13;;;;;;;2.85;2.33;;;;;;;;;;5108854;28;20263;-58
2021/08/30 06:08:39;;;;;;;2.17;1.98;;;;;;;;;;5095143;28;20077;-59
2021/08/30 06:11:04;;;;;;;2.80;2.60;;;;;;;;;;5114237;28;20031;-58
2021/08/30 06:13:29;;;;;;;3.97;2.17;;;;;;;;;;5114061;28;20015;-59
2021/08/30 06:15:54;;;;;;;2.45;2.25;;;;;;;;;;5114257;28;20064;-59
2021/08/30 06:18:20;;;;;;;3.13;2.92;;;;;;;;;;5114325;28;20110;-58
2021/08/30 06:20:45;;;;;;;3.08;2.88;;;;;;;;;;5113835;28;20378;-59
2021/08/30 06:23:10;;;;;;;2.83;2.20;;;;;;;;;;5114050;28;20023;-59
2021/08/30 06:25:35;;;;;;;2.92;2.67;;;;;;;;;;5114167;28;20110;-59
2021/08/30 06:28:01;;;;;;;2.42;2.25;;;;;;;;;;5114501;28;20090;-59
2021/08/30 06:30:26;;;;;;;2.20;2.10;;;;;;;;;;5113941;28;20030;-59
2021/08/30 06:32:53;;;;;;;3.53;2.03;;;;;;;;;;5114470;28;20497;-59
2021/08/30 06:35:18;;;;;;;2.53;1.98;;;;;;;;;;5114432;28;20051;-59
2021/08/30 06:37:44;;;;;;;2.75;2.05;;;;;;;;;;5113629;28;20059;-58
2021/08/30 06:40:09;;;;;;;2.88;1.95;;;;;;;;;;5113835;28;20019;-59
2021/08/30 06:42:35;;;;;;;3.20;2.63;;;;;;;;;;5114347;28;20023;-58
2021/08/30 06:45:00;;;;;;;4.05;2.58;;;;;;;;;;5114532;28;20077;-60
2021/08/30 06:47:25;;;;;;;3.17;2.90;;;;;;;;;;5114423;28;20031;-58
2021/08/30 06:49:51;;;;;;;2.42;2.22;;;;;;;;;;5114002;28;20027;-59
2021/08/30 06:52:16;;;;;;;2.63;2.05;;;;;;;;;;5113707;28;20099;-57
2021/08/30 06:54:41;;;;;;;2.75;2.55;;;;;;;;;;5113770;28;20435;-59
2021/08/30 06:57:06;;;;;;;2.60;2.40;;;;;;;;;;5113810;28;20462;-59
2021/08/30 06:59:32;;;;;;;3.28;2.40;;;;;;;;;;5113389;28;20398;-59
2021/08/30 07:01:58;;;;;;;2.90;2.70;;;;;;;;;;5094385;28;20367;-59
2021/08/30 07:04:23;;;;;;;3.67;3.38;;;;;;;;;;5112573;28;20057;-59
2021/08/30 07:06:48;;;;;;;4.35;2.72;;;;;;;;;;5112916;28;20063;-58
2021/08/30 07:09:13;;;;;;;3.35;2.10;;;;;;;;;;5113171;28;20034;-59
2021/08/30 07:11:39;;;;;;;5.07;2.22;;;;;;;;;;5113190;28;20486;-58
2021/08/30 07:14:04;;;;;;;5.53;2.63;;;;;;;;;;5113489;28;20028;-59
2021/08/30 07:16:29;;;;;;;2.65;2.45;;;;;;;;;;5109922;28;20027;-59
2021/08/30 07:18:54;;;;;;;2.33;2.00;;;;;;;;;;5105855;28;20024;-58
2021/08/30 07:21:20;;;;;;;2.38;2.17;;;;;;;;;;5105620;28;20382;-56
2021/08/30 07:23:45;;;;;;;2.08;1.92;;;;;;;;;;5112650;28;20004;-57
2021/08/30 07:26:10;;;;;;;1.90;1.67;;;;;;;;;;5112683;28;20031;-58
2021/08/30 07:28:36;;;;;;;2.95;1.95;;;;;;;;;;5112506;28;20494;-59
2021/08/30 07:31:01;;;;;;;2.00;1.80;;;;;;;;;;5111873;28;20035;-58
2021/08/30 07:33:26;;;;;;;2.25;1.40;;;;;;;;;;5112497;28;20482;-59
2021/08/30 07:35:52;;;;;;;1.60;1.50;;;;;;;;;;5112793;28;20187;-58
2021/08/30 07:38:17;;;;;;;1.50;1.40;;;;;;;;;;5094005;28;20382;-58
2021/08/30 07:40:42;;;;;;;1.63;1.30;;;;;;;;;;5112277;28;20076;-57
2021/08/30 07:43:07;;;;;;;4.03;1.63;;;;;;;;;;5112424;28;20694;-58
2021/08/30 07:45:32;;;;;;;1.42;1.33;;;;;;;;;;5113162;28;20529;-59
2021/08/30 07:47:58;;;;;;;1.63;1.13;;;;;;;;;;5112346;28;20394;-58
2021/08/30 07:50:23;;;;;;;1.40;1.30;;;;;;;;;;5112501;28;20016;-58
2021/08/30 07:52:48;;;;;;;1.63;1.33;;;;;;;;;;5111728;28;20023;-59
2021/08/30 07:55:14;;;;;;;1.30;1.20;;;;;;;;;;5112735;27;20294;-59
2021/08/30 07:57:40;;;;;;;2.30;0.90;;;;;;;;;;5113191;28;20248;-59
2021/08/30 08:00:05;;;;;;;1.95;1.40;;;;;;;;;;5093732;28;20473;-58
2021/08/30 08:02:31;;;;;;;0.98;0.88;;;;;;;;;;5111610;28;20036;-59
2021/08/30 08:04:56;;;;;;;1.38;1.27;;;;;;;;;;5112731;28;20027;-59
2021/08/30 08:07:21;;;;;;;0.60;0.60;;;;;;;;;;5112023;28;20023;-58
2021/08/30 08:09:46;;;;;;;1.52;0.63;;;;;;;;;;5100420;28;20020;-58
2021/08/30 08:12:12;;;;;;;1.17;1.08;;;;;;;;;;5094547;28;20417;-58
2021/08/30 08:14:38;;;;;;;1.35;0.98;;;;;;;;;;5111053;28;20087;-58
2021/08/30 08:17:03;;;;;;;1.20;1.02;;;;;;;;;;5112330;28;20149;-57
2021/08/30 08:19:28;;;;;;;0.60;0.50;;;;;;;;;;5112117;28;20091;-57
2021/08/30 08:21:55;;;;;;;1.45;1.30;;;;;;;;;;5111683;28;20171;-59
2021/08/30 08:24:23;;;;;;;1.15;0.60;;;;;;;;;;5111672;28;20015;-57
2021/08/30 08:26:48;;;;;;;1.17;0.68;;;;;;;;;;5111251;28;20072;-57
2021/08/30 08:29:14;;;;;;;1.02;0.70;;;;;;;;;;5111925;28;20048;-58
2021/08/30 08:31:39;;;;;;;0.65;0.65;;;;;;;;;;5110731;28;20020;-58
2021/08/30 08:34:04;;;;;;;1.10;1.10;;;;;;;;;;5110509;28;20027;-58
2021/08/30 08:36:29;;;;;;;0.90;0.90;;;;;;;;;;5112082;28;20015;-59
2021/08/30 08:38:55;;;;;;;2.13;1.33;;;;;;;;;;5112069;28;20020;-58
2021/08/30 08:41:20;;;;;;;1.25;1.15;;;;;;;;;;5111873;28;20102;-58
2021/08/30 08:43:46;;;;;;;1.47;1.37;;;;;;;;;;5111484;28;20063;-58
2021/08/30 08:46:11;;;;;;;2.20;1.20;;;;;;;;;;5102105;28;20280;-58
2021/08/30 08:48:36;;;;;;;1.70;1.60;;;;;;;;;;5104164;28;20066;-58
2021/08/30 08:51:01;;;;;;;1.38;1.27;;;;;;;;;;5103083;28;20360;-58
2021/08/30 08:53:27;;;;;;;1.75;1.52;;;;;;;;;;5111091;28;20408;-58
2021/08/30 08:55:53;;;;;;;1.38;1.27;;;;;;;;;;5111846;28;20015;-58
2021/08/30 08:58:20;;;;;;;2.15;1.30;;;;;;;;;;5111493;28;20027;-59
2021/08/30 09:00:57;;;;;;;1.30;1.20;;;;;;;;;;5111468;28;20119;-59
2021/08/30 09:03:23;;;;;;;1.60;1.50;;;;;;;;;;5102526;28;20057;-58
2021/08/30 09:05:59;;;;;;;2.73;1.40;;;;;;;;;;5110983;28;20400;-58
2021/08/30 09:08:27;;;;;;;1.88;1.67;;;;;;;;;;5110558;28;20278;-59
2021/08/30 09:10:52;;;;;;;2.00;1.77;;;;;;;;;;5111641;28;20077;-58
2021/08/30 09:13:24;;;;;;;1.45;1.33;;;;;;;;;;5111492;28;20015;-58
2021/08/30 09:15:50;;;;;;;1.77;1.55;;;;;;;;;;5112008;28;20519;-59
2021/08/30 09:18:15;;;;;;;0.90;0.90;;;;;;;;;;5111586;28;20019;-59
2021/08/30 09:20:40;;;;;;;0.50;0.50;;;;;;;;;;5110901;28;20024;-59
2021/08/30 09:23:14;;;;;;;1.13;0.50;;;;;;;;;;5110896;28;20266;-59
2021/08/30 09:25:39;;;;;;;0.95;0.57;;;;;;;;;;5091554;28;20028;-58
2021/08/30 09:28:04;;;;;;;0.80;0.75;;;;;;;;;;5090908;28;20048;-59
2021/08/30 09:30:30;;;;;;;0.70;0.60;;;;;;;;;;5098305;28;20012;-59
2021/08/30 09:32:55;;;;;;;0.83;0.70;;;;;;;;;;5105240;28;20374;-55
2021/08/30 09:35:21;;;;;;;1.20;0.98;;;;;;;;;;5111538;28;20740;-59
2021/08/30 09:37:46;;;;;;;1.02;0.63;;;;;;;;;;5110777;28;20019;-57
2021/08/30 09:40:14;;;;;;;0.63;0.63;;;;;;;;;;5110899;28;20419;-58
2021/08/30 09:42:40;;;;;;;0.60;0.60;;;;;;;;;;5113284;28;20503;-58
2021/08/30 09:45:10;;;;;;;0.80;0.80;;;;;;;;;;5114989;28;20031;-59
2021/08/30 09:47:35;;;;;;;1.90;1.42;;;;;;;;;;5114684;28;20028;-58
2021/08/30 09:50:01;;;;;;;2.33;1.92;;;;;;;;;;5114245;28;20030;-58
2021/08/30 09:52:26;;;;;;;1.45;1.40;;;;;;;;;;5114531;28;20019;-59
2021/08/30 09:54:51;;;;;;;1.70;1.50;;;;;;;;;;5114972;28;20023;-58
2021/08/30 09:57:17;;;;;;;2.65;2.08;;;;;;;;;;5114496;28;20024;-58
2021/08/30 09:59:43;;;;;;;2.35;2.15;;;;;;;;;;5114810;28;20016;-59
2021/08/30 10:02:10;;;;;;;2.80;2.60;;;;;;;;;;5115045;28;20020;-59
2021/08/30 10:04:36;;;;;;;2.35;2.20;;;;;;;;;;5114369;28;20102;-58
2021/08/30 10:07:02;;;;;;;2.42;2.25;;;;;;;;;;5096023;28;20374;-58
2021/08/30 10:09:27;;;;;;;2.33;2.13;;;;;;;;;;5114397;28;20020;-58
2021/08/30 10:11:54;;;;;;;1.70;1.60;;;;;;;;;;5105945;28;20094;-57
2021/08/30 10:14:22;;;;;;;1.02;1.00;;;;;;;;;;5106701;28;20062;-57
2021/08/30 10:16:47;;;;;;;2.08;1.98;;;;;;;;;;5114481;28;20016;-57
2021/08/30 10:19:23;;;;;;;2.13;2.00;;;;;;;;;;5113686;28;20102;-58
2021/08/30 10:21:48;;;;;;;2.60;2.40;;;;;;;;;;5114148;28;20086;-59
2021/08/30 10:24:15;;;;;;;3.10;2.80;;;;;;;;;;5111506;28;20041;-59
2021/08/30 10:26:41;;;;;;;2.20;2.10;;;;;;;;;;5113898;28;20671;-59
2021/08/30 10:29:06;;;;;;;2.97;2.78;;;;;;;;;;5113734;28;20054;-59
2021/08/30 10:31:31;;;;;;;2.47;2.30;;;;;;;;;;5114019;28;20416;-59
2021/08/30 10:33:58;;;;;;;2.33;1.80;;;;;;;;;;5114241;28;20026;-59
2021/08/30 10:36:24;;;;;;;1.23;1.23;;;;;;;;;;5113090;28;20779;-60
2021/08/30 10:39:19;;;;;;;1.08;1.02;;;;;;;;;;5113179;28;20041;-59
2021/08/30 10:41:45;;;;;;;1.27;1.17;;;;;;;;;;5100318;28;20077;-59
2021/08/30 10:44:14;;;;;;;0.63;0.63;;;;;;;;;;5114195;28;20024;-58
2021/08/30 10:46:45;;;;;;;0.88;0.88;;;;;;;;;;5112524;28;20350;-59
2021/08/30 10:49:12;;;;;;;1.92;1.70;;;;;;;;;;5107777;28;20031;-58
2021/08/30 10:51:38;;;;;;;2.25;1.92;;;;;;;;;;5113504;28;20106;-59
2021/08/30 10:54:12;;;;;;;2.78;2.58;;;;;;;;;;5112966;27;20022;-58
2021/08/30 10:56:37;;;;;;;2.17;1.97;;;;;;;;;;5114322;27;20035;-59
2021/08/30 10:59:06;;;;;;;2.20;2.00;;;;;;;;;;5101855;28;20045;-59
2021/08/30 11:01:33;;;;;;;1.50;1.40;;;;;;;;;;5111736;28;20258;-58
2021/08/30 11:03:58;;;;;;;1.55;1.45;;;;;;;;;;5112838;28;20023;-58
2021/08/30 11:06:24;;;;;;;1.05;1.05;;;;;;;;;;5113008;28;20294;-57
2021/08/30 11:08:50;;;;;;;1.88;1.00;;;;;;;;;;5102951;28;20022;-58
2021/08/30 11:11:15;;;;;;;0.90;0.90;;;;;;;;;;5110191;28;20490;-59
2021/08/30 11:13:41;;;;;;;2.40;0.80;;;;;;;;;;5105518;28;20016;-59
2021/08/30 11:16:19;;;;;;;0.80;0.77;;;;;;;;;;5112917;28;20270;-58
2021/08/30 11:18:55;;;;;;;0.80;0.80;;;;;;;;;;5113277;28;20016;-58
2021/08/30 11:21:30;;;;;;;0.90;0.80;;;;;;;;;;5112954;28;20047;-60
2021/08/30 11:23:55;;;;;;;0.85;0.47;;;;;;;;;;5113006;28;20061;-59
2021/08/30 11:26:21;;;;;;;0.60;0.60;;;;;;;;;;5111682;28;20016;-59
2021/08/30 11:28:53;;;;;;;1.50;0.68;;;;;;;;;;5110956;28;20694;-58
2021/08/30 11:31:24;;;;;;;0.50;0.40;;;;;;;;;;5111685;28;20102;-58
2021/08/30 11:33:49;;;;;;;1.05;0.60;;;;;;;;;;5111834;28;20031;-59
2021/08/30 11:36:16;;;;;;;0.80;0.65;;;;;;;;;;5113429;28;20027;-57
2021/08/30 11:38:50;;;;;;;2.25;0.60;;;;;;;;;;5111987;28;20023;-59
2021/08/30 11:41:15;;;;;;;0.40;0.30;;;;;;;;;;5097463;28;20119;-59
2021/08/30 11:43:40;;;;;;;1.57;0.30;;;;;;;;;;5113112;28;20114;-59
2021/08/30 11:46:09;;;;;;;0.30;0.30;;;;;;;;;;5112641;28;20253;-59
2021/08/30 11:48:34;;;;;;;0.77;0.20;;;;;;;;;;5111703;28;20462;-59
2021/08/30 11:51:03;;;;;;;0.60;0.40;;;;;;;;;;5112173;28;20096;-58
2021/08/30 11:53:28;;;;;;;0.30;0.30;;;;;;;;;;5112369;28;20336;-58
2021/08/30 11:55:53;;;;;;;0.45;0.30;;;;;;;;;;5112855;28;20094;-58
2021/08/30 11:58:28;;;;;;;0.50;0.30;;;;;;;;;;5112135;28;20030;-58
2021/08/30 12:01:13;;;;;;;0.85;0.20;;;;;;;;;;5112558;28;20268;-58
2021/08/30 12:03:42;;;;;;;0.47;0.30;;;;;;;;;;5112002;28;20111;-58
2021/08/30 12:06:19;;;;;;;0.20;0.20;;;;;;;;;;5111408;28;20465;-57
2021/08/30 12:08:50;;;;;;;0.25;0.10;;;;;;;;;;5109015;28;20493;-58
2021/08/30 12:11:15;;;;;;;0.43;0.10;;;;;;;;;;5112440;28;20477;-57
2021/08/30 12:13:55;;;;;;;0.40;0.10;;;;;;;;;;5107398;28;20024;-59
2021/08/30 12:16:21;;;;;;;0.30;0.13;;;;;;;;;;5092287;28;20056;-58
2021/08/30 12:18:50;;;;;;;0.35;0.10;;;;;;;;;;5091985;28;20046;-58
2021/08/30 12:21:25;;;;;;;0.63;0.10;;;;;;;;;;5103232;28;20027;-59
2021/08/30 12:23:50;;;;;;;0.50;0.20;;;;;;;;;;5111799;28;20028;-58
2021/08/30 12:26:15;;;;;;;0.20;0.10;;;;;;;;;;5112562;28;20351;-59
2021/08/30 12:28:46;;;;;;;0.13;0.10;;;;;;;;;;5111904;28;20286;-57
2021/08/30 12:31:11;;;;;;;0.57;0.10;;;;;;;;;;5108165;28;20329;-58
2021/08/30 12:33:36;;;;;;;0.20;0.10;;;;;;;;;;5109914;28;20149;-58
2021/08/30 12:36:02;;;;;;;0.52;0.10;;;;;;;;;;5112132;28;20262;-59
2021/08/30 12:38:31;;;;;;;0.10;0.10;;;;;;;;;;5111323;28;20102;-58
2021/08/30 12:40:59;;;;;;;0.10;0.10;;;;;;;;;;5111794;28;20018;-58
2021/08/30 12:43:25;;;;;;;0.10;0.10;;;;;;;;;;5111620;28;20419;-59
2021/08/30 12:45:51;;;;;;;0.63;0.20;;;;;;;;;;5112020;28;20030;-58
2021/08/30 12:48:18;;;;;;;0.17;0.10;;;;;;;;;;5092303;28;20470;-58
2021/08/30 12:50:43;;;;;;;0.70;0.20;;;;;;;;;;5106776;28;20023;-58
2021/08/30 12:53:09;;;;;;;0.77;0.47;;;;;;;;;;5110779;28;20466;-58
2021/08/30 12:55:34;;;;;;;0.32;0.30;;;;;;;;;;5106125;28;20098;-58
2021/08/30 12:58:00;;;;;;;0.70;0.20;;;;;;;;;;5110667;28;20085;-58
2021/08/30 13:00:25;;;;;;;0.40;0.20;;;;;;;;;;5111053;28;20027;-58
2021/08/30 13:02:51;;;;;;;0.20;0.20;;;;;;;;;;5097229;28;20473;-59
2021/08/30 13:05:18;;;;;;;0.20;0.13;;;;;;;;;;5111079;28;20061;-59
2021/08/30 13:07:43;;;;;;;0.35;0.20;;;;;;;;;;5111547;28;20051;-58
2021/08/30 13:10:10;;;;;;;0.20;0.20;;;;;;;;;;5110888;28;20055;-58
2021/08/30 13:12:35;;;;;;;0.20;0.20;;;;;;;;;;5111555;28;20088;-57
2021/08/30 13:15:00;;;;;;;0.47;0.20;;;;;;;;;;5109049;28;20012;-58
2021/08/30 13:17:26;;;;;;;0.38;0.20;;;;;;;;;;5113138;28;20016;-58
2021/08/30 13:19:51;;;;;;;0.40;0.32;;;;;;;;;;5114617;28;20034;-58
2021/08/30 13:22:17;;;;;;;0.70;0.28;;;;;;;;;;5100910;28;20024;-59
2021/08/30 13:24:42;;;;;;;0.20;0.17;;;;;;;;;;5107859;28;20032;-58
2021/08/30 13:27:07;;;;;;;0.30;0.30;;;;;;;;;;5115426;28;20023;-58
2021/08/30 13:29:33;;;;;;;0.95;0.20;;;;;;;;;;5112766;28;20059;-59
2021/08/30 13:31:58;;;;;;;0.30;0.20;;;;;;;;;;5106918;28;20027;-59
2021/08/30 13:34:23;;;;;;;0.40;0.25;;;;;;;;;;5114592;28;20027;-59
2021/08/30 13:36:48;;;;;;;1.53;0.27;;;;;;;;;;5114403;28;20011;-58
2021/08/30 13:39:14;;;;;;;0.40;0.20;;;;;;;;;;5114458;28;20643;-58
2021/08/30 13:41:39;;;;;;;0.30;0.30;;;;;;;;;;5115656;28;20020;-58
2021/08/30 13:44:04;;;;;;;0.73;0.30;;;;;;;;;;5115518;28;20780;-58
2021/08/30 13:46:29;;;;;;;0.50;0.20;;;;;;;;;;5114793;27;20273;-58
2021/08/30 13:48:55;;;;;;;0.52;0.30;;;;;;;;;;5113851;28;20032;-56
2021/08/30 13:51:20;;;;;;;0.57;0.20;;;;;;;;;;5115269;28;20058;-57
2021/08/30 13:53:45;;;;;;;1.08;0.30;;;;;;;;;;5113074;28;20031;-58
2021/08/30 13:56:10;;;;;;;1.38;0.30;;;;;;;;;;5115353;28;20366;-59
2021/08/30 13:58:35;;;;;;;0.50;0.30;;;;;;;;;;5114967;28;20472;-59
2021/08/30 14:01:01;;;;;;;0.50;0.50;;;;;;;;;;5115044;28;20295;-59
2021/08/30 14:03:27;;;;;;;0.50;0.40;;;;;;;;;;5114711;28;20027;-61
2021/08/30 14:05:52;;;;;;;0.30;0.30;;;;;;;;;;5094902;28;20099;-59
2021/08/30 14:08:17;;;;;;;0.82;0.30;;;;;;;;;;5094076;28;20103;-59
2021/08/30 14:10:42;;;;;;;0.40;0.30;;;;;;;;;;5105464;28;20047;-58
2021/08/30 14:13:08;;;;;;;1.03;0.30;;;;;;;;;;5114906;28;20051;-58
2021/08/30 14:15:35;;;;;;;1.65;0.20;;;;;;;;;;5114422;28;20292;-58
2021/08/30 14:18:00;;;;;;;0.30;0.30;;;;;;;;;;5114380;28;20026;-59
2021/08/30 14:20:25;;;;;;;0.35;0.30;;;;;;;;;;5095072;28;20020;-59
2021/08/30 14:22:51;;;;;;;1.48;0.30;;;;;;;;;;5112718;28;20375;-60
2021/08/30 14:25:16;;;;;;;0.40;0.32;;;;;;;;;;5114288;28;20378;-59
2021/08/30 14:27:42;;;;;;;1.50;0.30;;;;;;;;;;5113354;28;20039;-60
2021/08/30 14:30:08;;;;;;;0.50;0.30;;;;;;;;;;5113269;28;20026;-59
2021/08/30 14:32:33;;;;;;;1.15;0.30;;;;;;;;;;5114670;28;20169;-59
2021/08/30 14:34:59;;;;;;;0.68;0.40;;;;;;;;;;5114078;28;20035;-60
2021/08/30 14:37:24;;;;;;;1.10;0.30;;;;;;;;;;5095513;28;20026;-59
2021/08/30 14:39:50;;;;;;;1.10;0.35;;;;;;;;;;5095406;28;20114;-60
2021/08/30 14:42:15;;;;;;;0.68;0.55;;;;;;;;;;5111782;28;20056;-60